Nearby METAR Reports

 

EGTE - Exeter Airport, United Kingdom
Distance from station: S 19km
Updated: 22/05/2018 08:20
Clear
Clear
 Wind from NW
Wind: NW 9 km/h
Temperature: 14°C
Dew Point: 10°C
Humidity: 77%
Barometer: 1017 hPa
Summary: Clear
Visibility: greater than 10 km
2018/05/22 07:20 EGTE 220720Z 31005KT CAVOK 14/10 Q1017
EGDY - Yeovilton (navy), United Kingdom
Distance from station: ENE 55km
Updated: 22/05/2018 07:50
Clear
Clear
 Wind from N
Wind: N 9 km/h
Temperature: 14°C
Dew Point: 10°C
Humidity: 77%
Barometer: 1017 hPa
Summary: Clear
Visibility: greater than 10 km
2018/05/22 06:50 EGDY 220650Z 35005KT CAVOK 14/10 Q1017 BLU NOSIG
 
EGFF - Cardiff-Wales Ar, United Kingdom
Distance from station: N 56km
Updated: 01/01/1970 01:00
NOT Current
unable to load EGFF data RC=404 Not Found
unable to load EGFF data RC=404 Not Found
 
EGDX - St Athan Raf, United Kingdom
Distance from station: N 58km
Updated: 22/05/2018 07:50
Partly cloudy
Partly cloudy
 Wind from WSW
Wind: WSW 6 km/h
Temperature: 14°C
Dew Point: 11°C
Humidity: 82%
Barometer: 1017 hPa
Clouds: Partly cloudy
Visibility: 10 km
Cloud details: Partly cloudy 3353 m
2018/05/22 06:50 EGDX 220650Z AUTO 25003KT 9999 SCT110/// 14/11 Q1017
 
EGGD - Bristol/Lulsgate, United Kingdom
Distance from station: NE 71km
Updated: 22/05/2018 08:20
Clear
Clear
 Wind from N
Wind: N 20 km/h
Temperature: 13°C
Dew Point: 10°C
Humidity: 82%
Barometer: 1017 hPa
Clouds: Clear
Visibility: 10 km
2018/05/22 07:20 EGGD 220720Z AUTO 01011KT 9999 NCD 13/10 Q1017